Time;durP1;ratioP1;P1;durP2;ratioP2;P2;SDS_P1;SDS_P2;PMS_P1;PMS_P2;Temp;Humidity;BMP_temperature;BMP_pressure;BME280_temperature;BME280_humidity;BME280_pressure;Samples;Min_cycle;Max_cycle;Signal;HPM_P1;HPM_P2
2023/05/20 00:02:15;;;;;;;2.72;1.10;;;8.20;77.60;;;;;;5017169;28;20972;-73
2023/05/20 00:04:42;;;;;;;2.00;1.10;;;8.20;78.50;;;;;;5020972;28;20084;-74
2023/05/20 00:07:09;;;;;;;4.50;0.98;;;8.20;77.80;;;;;;5002352;28;20103;-73
2023/05/20 00:09:38;;;;;;;10.30;1.17;;;8.20;78.40;;;;;;5015488;28;20199;-73
2023/05/20 00:12:05;;;;;;;5.90;1.42;;;8.20;78.30;;;;;;5021453;28;20049;-73
2023/05/20 00:14:32;;;;;;;8.00;1.00;;;8.10;78.70;;;;;;5021185;28;20064;-73
2023/05/20 00:16:59;;;;;;;3.70;1.10;;;8.20;78.50;;;;;;5002743;28;20077;-73
2023/05/20 00:19:26;;;;;;;4.28;0.90;;;8.10;78.60;;;;;;5018631;28;20049;-73
2023/05/20 00:21:53;;;;;;;3.53;1.33;;;8.10;78.70;;;;;;5020600;28;20058;-73
2023/05/20 00:24:19;;;;;;;4.38;1.10;;;8.10;78.50;;;;;;4998250;28;20452;-73
2023/05/20 00:26:46;;;;;;;5.07;1.10;;;8.10;78.50;;;;;;5020239;28;20080;-73
2023/05/20 00:29:13;;;;;;;3.63;1.30;;;8.10;79.10;;;;;;5018946;28;20081;-73
2023/05/20 00:31:40;;;;;;;3.90;1.02;;;8.10;79.40;;;;;;5006142;28;20092;-73
2023/05/20 00:34:08;;;;;;;3.95;1.13;;;8.10;78.80;;;;;;5021548;28;20723;-73
2023/05/20 00:36:35;;;;;;;6.22;0.90;;;8.10;79.10;;;;;;5017109;28;20057;-73
2023/05/20 00:39:02;;;;;;;2.65;0.98;;;8.10;79.50;;;;;;5021059;28;20048;-73
2023/05/20 00:41:29;;;;;;;5.07;1.33;;;8.00;79.20;;;;;;5007387;28;20128;-73
2023/05/20 00:43:56;;;;;;;1.98;0.98;;;8.00;79.40;;;;;;5022695;28;20077;-73
2023/05/20 00:46:25;;;;;;;7.03;1.02;;;8.00;79.30;;;;;;5022312;28;20087;-73
2023/05/20 00:48:52;;;;;;;1.92;0.90;;;7.90;79.70;;;;;;5003542;28;20493;-73
2023/05/20 00:51:19;;;;;;;5.35;1.55;;;7.90;79.90;;;;;;5014768;28;20345;-73
2023/05/20 00:53:46;;;;;;;3.92;0.80;;;7.90;80.00;;;;;;5018318;28;20156;-73
2023/05/20 00:56:13;;;;;;;5.57;1.17;;;7.90;80.10;;;;;;5005003;28;20138;-74
2023/05/20 00:58:41;;;;;;;4.05;1.08;;;7.90;80.20;;;;;;4996056;28;20656;-73
2023/05/20 01:01:07;;;;;;;4.20;1.08;;;7.80;80.20;;;;;;5001522;28;20522;-74
2023/05/20 01:03:35;;;;;;;1.38;0.73;;;7.80;80.40;;;;;;5022065;28;20498;-73
2023/05/20 01:06:02;;;;;;;4.05;1.10;;;7.80;80.40;;;;;;5020395;28;20532;-73
2023/05/20 01:08:29;;;;;;;3.50;1.10;;;7.80;80.70;;;;;;5018607;28;20461;-73
2023/05/20 01:11:03;;;;;;;8.07;1.40;;;7.80;80.70;;;;;;5019717;28;20042;-73
2023/05/20 01:13:47;;;;;;;2.78;0.85;;;7.80;80.70;;;;;;5012555;28;20045;-73
2023/05/20 01:16:17;;;;;;;4.13;1.40;;;7.80;80.90;;;;;;5019766;28;20049;-73
2023/05/20 01:18:47;;;;;;;4.85;1.02;;;7.80;80.90;;;;;;5006573;28;20045;-73
2023/05/20 01:21:16;;;;;;;4.97;1.05;;;7.80;81.00;;;;;;5000503;28;20930;-73
2023/05/20 01:23:43;;;;;;;1.77;0.80;;;7.70;80.80;;;;;;5020993;28;20539;-73
2023/05/20 01:26:12;;;;;;;2.58;1.02;;;7.70;80.80;;;;;;5012828;28;20176;-73
2023/05/20 01:28:42;;;;;;;5.28;1.10;;;7.70;80.80;;;;;;5017308;28;20057;-73
2023/05/20 01:31:31;;;;;;;2.25;0.90;;;7.70;81.20;;;;;;4995158;28;20165;-73
2023/05/20 01:33:59;;;;;;;2.58;1.23;;;7.70;80.80;;;;;;5009474;28;20049;-73
2023/05/20 01:36:27;;;;;;;4.65;1.15;;;7.60;80.90;;;;;;5018724;28;20363;-73
2023/05/20 01:38:56;;;;;;;3.58;1.33;;;7.60;80.90;;;;;;5004681;28;20111;-73
2023/05/20 01:41:25;;;;;;;3.45;1.38;;;7.60;81.40;;;;;;5003866;28;20646;-74
2023/05/20 01:43:54;;;;;;;2.55;0.95;;;7.60;81.10;;;;;;5003553;28;20076;-74
2023/05/20 01:46:21;;;;;;;4.43;1.15;;;7.50;81.40;;;;;;5020951;28;20049;-73
2023/05/20 01:48:48;;;;;;;3.70;1.10;;;7.50;81.70;;;;;;5023414;28;20461;-73
2023/05/20 01:51:15;;;;;;;4.93;1.23;;;7.40;82.20;;;;;;5021557;28;20077;-73
2023/05/20 01:53:42;;;;;;;3.35;1.10;;;7.40;81.80;;;;;;5018732;28;20045;-72
2023/05/20 01:56:09;;;;;;;4.65;1.30;;;7.30;81.80;;;;;;5018454;28;20160;-72
2023/05/20 01:58:36;;;;;;;2.58;1.00;;;7.30;81.90;;;;;;5012288;28;20341;-73
2023/05/20 02:01:03;;;;;;;2.17;1.05;;;7.20;81.80;;;;;;4994063;28;20451;-72
2023/05/20 02:03:30;;;;;;;4.15;1.15;;;7.20;82.10;;;;;;5016176;28;20498;-73
2023/05/20 02:05:57;;;;;;;2.85;1.33;;;7.20;82.60;;;;;;5012230;28;20055;-73
2023/05/20 02:08:23;;;;;;;3.35;1.20;;;7.10;82.30;;;;;;4995003;28;20137;-72
2023/05/20 02:10:50;;;;;;;2.92;1.27;;;7.10;82.40;;;;;;4998262;28;20049;-73
2023/05/20 02:13:17;;;;;;;3.10;1.10;;;7.00;82.70;;;;;;5015066;28;20931;-73
2023/05/20 02:15:44;;;;;;;3.40;1.38;;;7.00;82.80;;;;;;4999004;28;20504;-73
2023/05/20 02:18:12;;;;;;;3.90;1.48;;;7.00;83.20;;;;;;5019086;28;20056;-72
2023/05/20 02:20:40;;;;;;;1.73;1.00;;;6.90;83.30;;;;;;5017161;28;20072;-72
2023/05/20 02:23:07;;;;;;;8.18;1.52;;;6.90;83.70;;;;;;5019192;28;20077;-73
2023/05/20 02:25:34;;;;;;;2.42;1.17;;;6.90;83.60;;;;;;5022729;28;20137;-73
2023/05/20 02:28:04;;;;;;;4.28;1.10;;;6.80;84.00;;;;;;4987824;28;20424;-72
2023/05/20 02:30:31;;;;;;;7.72;1.52;;;6.80;84.20;;;;;;5004317;28;20156;-72
2023/05/20 02:32:58;;;;;;;3.00;1.10;;;6.80;84.40;;;;;;5011360;28;20590;-73
2023/05/20 02:35:25;;;;;;;3.33;1.52;;;6.80;84.50;;;;;;5002968;28;20049;-72
2023/05/20 02:37:52;;;;;;;11.10;1.50;;;6.70;85.00;;;;;;5003896;28;20093;-73
2023/05/20 02:40:19;;;;;;;8.48;1.38;;;6.70;85.10;;;;;;5019394;28;20105;-73
2023/05/20 02:42:46;;;;;;;4.90;1.20;;;6.70;84.80;;;;;;5014906;28;20060;-73
2023/05/20 02:45:13;;;;;;;4.85;1.30;;;6.70;85.10;;;;;;5018175;28;20057;-72
2023/05/20 02:47:40;;;;;;;3.08;1.45;;;6.60;85.00;;;;;;5020737;28;20053;-73
2023/05/20 02:50:07;;;;;;;5.13;1.77;;;6.60;85.10;;;;;;5019359;28;20500;-72
2023/05/20 02:52:35;;;;;;;4.88;1.52;;;6.50;85.40;;;;;;4996693;28;20585;-73
2023/05/20 02:55:02;;;;;;;3.83;1.55;;;6.50;85.60;;;;;;4998161;28;20113;-73
2023/05/20 02:57:28;;;;;;;2.20;1.35;;;6.40;85.60;;;;;;5020759;28;20164;-73
2023/05/20 02:59:55;;;;;;;3.78;1.23;;;6.50;86.70;;;;;;5018631;28;20199;-73
2023/05/20 03:02:23;;;;;;;5.65;1.50;;;6.50;86.70;;;;;;4996994;28;20124;-73
2023/05/20 03:04:52;;;;;;;6.38;1.60;;;6.50;86.50;;;;;;5003225;28;20080;-73
2023/05/20 03:07:20;;;;;;;6.20;1.70;;;6.50;87.00;;;;;;5012206;28;20077;-73
2023/05/20 03:09:47;;;;;;;5.70;1.60;;;6.40;87.10;;;;;;5015183;28;20053;-73
2023/05/20 03:12:14;;;;;;;5.30;1.40;;;6.40;87.90;;;;;;5004017;28;20084;-73
2023/05/20 03:14:41;;;;;;;9.35;1.60;;;6.40;88.00;;;;;;5002446;28;20053;-73
2023/05/20 03:17:08;;;;;;;6.13;1.13;;;6.40;87.90;;;;;;5017606;28;20077;-73
2023/05/20 03:19:35;;;;;;;4.25;1.50;;;6.40;88.80;;;;;;4997130;28;20460;-73
2023/05/20 03:22:03;;;;;;;4.40;1.60;;;6.40;88.70;;;;;;5015759;28;20049;-72
2023/05/20 03:24:29;;;;;;;3.90;1.40;;;6.40;89.10;;;;;;5015894;28;20552;-73
2023/05/20 03:26:56;;;;;;;6.20;1.98;;;6.40;88.70;;;;;;5015705;28;20041;-73
2023/05/20 03:29:23;;;;;;;6.20;1.55;;;6.40;89.20;;;;;;5010689;28;20184;-73
2023/05/20 03:31:50;;;;;;;8.48;1.73;;;6.40;89.30;;;;;;4994342;28;20054;-73
2023/05/20 03:34:17;;;;;;;6.50;2.10;;;6.40;89.30;;;;;;5015681;28;20050;-73
2023/05/20 03:36:45;;;;;;;6.50;1.83;;;6.40;89.20;;;;;;5016792;28;20131;-73
2023/05/20 03:39:12;;;;;;;9.07;1.95;;;6.50;89.60;;;;;;5000777;28;20082;-73
2023/05/20 03:41:38;;;;;;;3.83;1.58;;;6.40;89.60;;;;;;5005022;28;20534;-73
2023/05/20 03:44:05;;;;;;;4.00;1.90;;;6.40;89.70;;;;;;4996606;28;20641;-73
2023/05/20 03:46:33;;;;;;;2.67;1.40;;;6.50;90.90;;;;;;4999825;28;20042;-73
2023/05/20 03:49:04;;;;;;;9.35;2.25;;;6.50;91.00;;;;;;5016823;28;20061;-73
2023/05/20 03:51:31;;;;;;;7.05;1.70;;;6.50;90.70;;;;;;5020747;28;20122;-73
2023/05/20 03:53:57;;;;;;;4.93;1.90;;;6.50;91.40;;;;;;5016961;28;20141;-73
2023/05/20 03:56:25;;;;;;;6.10;2.10;;;6.60;91.70;;;;;;5000023;28;20053;-73
2023/05/20 03:58:52;;;;;;;9.60;2.45;;;6.70;92.00;;;;;;5000411;28;20091;-73
2023/05/20 04:01:20;;;;;;;6.40;2.05;;;6.70;92.00;;;;;;5000762;28;20494;-73
2023/05/20 04:03:47;;;;;;;6.47;2.13;;;6.70;91.90;;;;;;5020918;28;20180;-73
2023/05/20 04:06:14;;;;;;;7.47;2.17;;;6.80;91.70;;;;;;5021058;28;20061;-73
2023/05/20 04:08:41;;;;;;;5.97;2.53;;;6.80;91.80;;;;;;5017310;28;20127;-73
2023/05/20 04:11:08;;;;;;;11.50;2.10;;;6.80;92.30;;;;;;4999271;28;20049;-73
2023/05/20 04:13:34;;;;;;;6.07;2.45;;;6.90;92.10;;;;;;5020101;28;20164;-74
2023/05/20 04:16:04;;;;;;;10.73;2.83;;;7.00;92.40;;;;;;5020764;28;20049;-73
2023/05/20 04:18:31;;;;;;;5.15;2.40;;;7.00;92.50;;;;;;4999994;28;20441;-73
2023/05/20 04:21:00;;;;;;;9.98;2.40;;;7.10;92.10;;;;;;5020029;28;20395;-73
2023/05/20 04:23:27;;;;;;;4.95;2.22;;;7.10;92.00;;;;;;4994526;28;20046;-73
2023/05/20 04:25:54;;;;;;;4.93;2.63;;;7.10;91.70;;;;;;5016637;28;20421;-73
2023/05/20 04:28:22;;;;;;;9.65;2.10;;;7.10;91.70;;;;;;5017413;28;20220;-74
2023/05/20 04:30:58;;;;;;;9.43;2.45;;;7.20;92.10;;;;;;5002453;28;20073;-74
2023/05/20 04:33:25;;;;;;;9.15;2.67;;;7.20;92.20;;;;;;5012960;28;20081;-74
2023/05/20 04:35:57;;;;;;;10.52;2.67;;;7.30;92.50;;;;;;4997557;28;20126;-74
2023/05/20 04:38:31;;;;;;;10.32;2.50;;;7.30;92.20;;;;;;5013131;28;20057;-73
2023/05/20 04:40:59;;;;;;;4.85;2.50;;;7.40;92.50;;;;;;4999587;28;20058;-74
2023/05/20 04:43:28;;;;;;;9.63;2.88;;;7.50;92.20;;;;;;5019424;28;20135;-73
2023/05/20 04:45:56;;;;;;;8.43;2.58;;;7.50;92.10;;;;;;5021692;28;20131;-73
2023/05/20 04:48:23;;;;;;;6.40;2.63;;;7.60;92.20;;;;;;5018045;28;20242;-73
2023/05/20 04:50:53;;;;;;;7.32;2.92;;;7.60;92.20;;;;;;5013547;28;20060;-73
2023/05/20 04:53:22;;;;;;;5.90;2.70;;;7.60;92.00;;;;;;5006772;28;20416;-73
2023/05/20 04:55:53;;;;;;;8.55;3.38;;;7.70;91.90;;;;;;4999040;28;20089;-73
2023/05/20 04:58:23;;;;;;;8.98;3.50;;;7.80;92.00;;;;;;5002533;28;20842;-73
2023/05/20 05:00:51;;;;;;;10.70;3.33;;;7.80;92.00;;;;;;5014353;28;20051;-73
2023/05/20 05:03:17;;;;;;;9.15;3.22;;;7.90;92.10;;;;;;5020539;28;20041;-73
2023/05/20 05:05:45;;;;;;;9.98;3.50;;;8.00;92.00;;;;;;5005320;28;20076;-73
2023/05/20 05:08:11;;;;;;;10.55;3.78;;;8.10;91.80;;;;;;5019212;28;20050;-73
2023/05/20 05:10:38;;;;;;;11.25;3.53;;;8.20;91.80;;;;;;5002383;28;20053;-74
2023/05/20 05:13:05;;;;;;;9.20;3.53;;;8.30;91.70;;;;;;5003572;28;20209;-73
2023/05/20 05:15:32;;;;;;;8.68;3.38;;;8.40;91.50;;;;;;5016884;28;20041;-73
2023/05/20 05:17:59;;;;;;;11.05;3.75;;;8.50;91.50;;;;;;5001829;28;20045;-74
2023/05/20 05:20:26;;;;;;;5.03;3.47;;;8.50;91.40;;;;;;5017060;28;20101;-73
2023/05/20 05:22:53;;;;;;;13.45;4.10;;;8.70;91.30;;;;;;5016302;28;20053;-73
2023/05/20 05:25:20;;;;;;;10.23;3.53;;;8.70;91.00;;;;;;5008993;28;20416;-74
2023/05/20 05:27:49;;;;;;;12.13;3.78;;;8.80;91.10;;;;;;5011880;28;20138;-74
2023/05/20 05:30:17;;;;;;;37.33;6.40;;;8.90;90.90;;;;;;5022682;28;20465;-74
2023/05/20 05:32:44;;;;;;;8.35;3.28;;;9.10;93.50;;;;;;5017889;28;20050;-76
2023/05/20 05:35:11;;;;;;;11.25;3.65;;;9.20;93.10;;;;;;5017322;28;20057;-74
2023/05/20 05:37:38;;;;;;;11.45;3.70;;;9.30;92.90;;;;;;4999741;28;20645;-75
2023/05/20 05:40:06;;;;;;;6.85;3.40;;;9.40;92.70;;;;;;5021697;28;20050;-75
2023/05/20 05:42:33;;;;;;;5.15;3.40;;;9.50;93.30;;;;;;5016025;28;20050;-75
2023/05/20 05:45:00;;;;;;;6.65;3.15;;;9.60;93.20;;;;;;5000467;28;20046;-76
2023/05/20 05:47:31;;;;;;;10.00;3.88;;;9.70;91.70;;;;;;5038153;22;20069;-76
2023/05/20 05:50:01;;;;;;;6.38;3.22;;;9.80;90.80;;;;;;5013256;28;20444;-76
2023/05/20 05:52:28;;;;;;;8.73;3.60;;;10.00;90.70;;;;;;5012141;28;20080;-76
2023/05/20 05:54:55;;;;;;;5.20;3.22;;;10.10;90.50;;;;;;4992398;28;20167;-76
2023/05/20 05:57:22;;;;;;;9.20;3.10;;;10.20;90.10;;;;;;5006587;28;20053;-75
2023/05/20 05:59:49;;;;;;;5.63;3.15;;;10.40;89.70;;;;;;5028204;28;20516;-73
2023/05/20 06:02:16;;;;;;;6.65;3.03;;;10.50;88.60;;;;;;5023019;28;20134;-74
2023/05/20 06:04:43;;;;;;;7.97;3.67;;;10.60;88.30;;;;;;5011951;28;20056;-74
2023/05/20 06:07:10;;;;;;;5.28;2.83;;;10.70;88.30;;;;;;5018335;28;20081;-74
2023/05/20 06:09:37;;;;;;;6.03;3.08;;;10.90;88.50;;;;;;4989711;28;20086;-74
2023/05/20 06:12:04;;;;;;;8.13;2.95;;;11.10;87.10;;;;;;5013158;28;20054;-74
2023/05/20 06:14:31;;;;;;;9.25;2.80;;;11.30;87.20;;;;;;5009390;28;20061;-74
2023/05/20 06:16:58;;;;;;;9.13;2.67;;;11.50;85.90;;;;;;5005995;28;20089;-74
2023/05/20 06:19:26;;;;;;;5.63;2.55;;;11.60;84.40;;;;;;5019573;28;20342;-73
2023/05/20 06:21:52;;;;;;;9.10;2.70;;;11.90;83.60;;;;;;5030128;28;20056;-73
2023/05/20 06:24:19;;;;;;;8.50;2.75;;;12.10;84.30;;;;;;5028774;28;20049;-73
2023/05/20 06:26:49;;;;;;;5.82;2.90;;;12.40;82.30;;;;;;4997094;28;20050;-73
2023/05/20 06:29:16;;;;;;;4.75;2.50;;;12.80;82.00;;;;;;4996529;28;20144;-73
2023/05/20 06:31:43;;;;;;;9.75;2.65;;;13.20;79.50;;;;;;4999772;28;20600;-73
2023/05/20 06:34:10;;;;;;;6.00;2.45;;;13.50;76.80;;;;;;4998559;28;20068;-73
2023/05/20 06:36:37;;;;;;;16.95;3.08;;;13.70;76.60;;;;;;5006914;28;20053;-73
2023/05/20 06:39:05;;;;;;;10.02;2.67;;;14.20;74.00;;;;;;4997569;28;20561;-73
2023/05/20 06:41:32;;;;;;;5.28;2.53;;;14.60;72.50;;;;;;5017628;28;20053;-73
2023/05/20 06:43:58;;;;;;;4.72;2.53;;;15.00;71.60;;;;;;5012245;28;20071;-73
2023/05/20 06:46:25;;;;;;;7.10;2.85;;;15.20;69.70;;;;;;5017497;28;20171;-73
2023/05/20 06:48:52;;;;;;;4.10;2.17;;;15.30;71.00;;;;;;4999479;28;20059;-73
2023/05/20 06:51:19;;;;;;;5.40;2.60;;;15.70;68.20;;;;;;5014889;28;20140;-73
2023/05/20 06:53:46;;;;;;;7.60;2.67;;;16.10;67.40;;;;;;5024264;28;20067;-73
2023/05/20 06:56:13;;;;;;;7.10;2.30;;;16.30;65.90;;;;;;5018442;28;20103;-73
2023/05/20 06:58:40;;;;;;;9.45;2.88;;;16.20;65.60;;;;;;4991567;28;20160;-73
2023/05/20 07:01:07;;;;;;;9.18;2.50;;;16.10;65.90;;;;;;5015306;28;20077;-74
2023/05/20 07:03:33;;;;;;;4.53;2.20;;;16.50;64.90;;;;;;5009734;28;20074;-73
2023/05/20 07:06:00;;;;;;;8.23;1.83;;;16.60;64.40;;;;;;5020215;28;20056;-73
2023/05/20 07:08:27;;;;;;;9.85;2.13;;;16.90;64.50;;;;;;5009944;28;20065;-74
2023/05/20 07:10:55;;;;;;;10.63;4.07;;;16.90;64.50;;;;;;5008908;28;20119;-73
2023/05/20 07:13:22;;;;;;;5.20;2.30;;;16.90;63.20;;;;;;4999544;28;20126;-74
2023/05/20 07:15:49;;;;;;;4.82;2.50;;;17.00;64.30;;;;;;5023813;28;20168;-74
2023/05/20 07:18:17;;;;;;;5.93;2.35;;;16.90;62.30;;;;;;5010349;28;20095;-73
2023/05/20 07:20:44;;;;;;;4.05;1.80;;;17.00;62.60;;;;;;5007223;28;20100;-73
2023/05/20 07:23:11;;;;;;;3.55;1.75;;;17.30;62.80;;;;;;4998241;28;20053;-74
2023/05/20 07:25:40;;;;;;;7.28;2.00;;;17.50;62.30;;;;;;5017189;28;20401;-74
2023/05/20 07:28:07;;;;;;;3.22;1.90;;;17.70;60.70;;;;;;5022672;28;20472;-73
2023/05/20 07:30:34;;;;;;;6.50;2.13;;;17.40;61.10;;;;;;5008625;28;20065;-74
2023/05/20 07:33:01;;;;;;;7.97;2.00;;;17.60;61.70;;;;;;5018874;28;20080;-73
2023/05/20 07:35:28;;;;;;;6.25;2.05;;;17.80;59.10;;;;;;5013965;28;20049;-76
2023/05/20 07:37:54;;;;;;;3.10;1.70;;;18.00;58.90;;;;;;5004042;28;20057;-75
2023/05/20 07:40:21;;;;;;;3.15;1.80;;;17.90;58.90;;;;;;5018913;28;20505;-74
2023/05/20 07:42:48;;;;;;;8.38;2.03;;;18.00;59.80;;;;;;5023725;28;20056;-77
2023/05/20 07:45:15;;;;;;;7.10;1.80;;;17.90;58.80;;;;;;5018882;28;20073;-77
2023/05/20 07:47:42;;;;;;;5.47;2.03;;;17.70;59.30;;;;;;5018082;28;20053;-78
2023/05/20 07:50:09;;;;;;;7.03;1.92;;;17.40;60.00;;;;;;5002671;28;20049;-78
2023/05/20 07:52:36;;;;;;;3.97;1.80;;;17.60;61.00;;;;;;4993940;28;20461;-78
2023/05/20 07:55:21;;;;;;;6.63;2.05;;;17.90;59.10;;;;;;5019252;28;20466;-79
2023/05/20 07:57:48;;;;;;;2.75;1.85;;;18.00;58.10;;;;;;5010518;28;20176;-78
2023/05/20 08:00:15;;;;;;;6.43;2.08;;;17.60;59.60;;;;;;5015561;28;20047;-78
2023/05/20 08:02:41;;;;;;;3.60;1.77;;;17.50;60.50;;;;;;5026077;28;20163;-78
2023/05/20 08:05:08;;;;;;;6.43;2.33;;;17.40;60.50;;;;;;5000121;28;20049;-73
2023/05/20 08:07:35;;;;;;;21.55;4.30;;;17.00;61.10;;;;;;5013617;28;20490;-72
2023/05/20 08:10:02;;;;;;;24.02;4.15;;;17.20;62.30;;;;;;5025081;28;20202;-72
2023/05/20 08:12:30;;;;;;;6.78;2.60;;;17.30;61.50;;;;;;5003200;28;20053;-72
2023/05/20 08:14:57;;;;;;;7.13;2.30;;;17.20;60.60;;;;;;4994976;28;20461;-72
2023/05/20 08:17:23;;;;;;;6.43;3.17;;;17.40;60.30;;;;;;5016953;28;20529;-73
2023/05/20 08:19:50;;;;;;;4.82;2.00;;;17.60;60.20;;;;;;5026263;28;20056;-74
2023/05/20 08:22:17;;;;;;;4.53;2.13;;;17.60;60.10;;;;;;5025919;28;20141;-73
2023/05/20 08:24:44;;;;;;;6.65;2.25;;;17.50;60.60;;;;;;4998273;28;20180;-73
2023/05/20 08:27:11;;;;;;;6.75;1.88;;;17.50;61.60;;;;;;5005956;28;20421;-74
2023/05/20 08:29:38;;;;;;;18.15;2.17;;;17.60;61.90;;;;;;5019008;28;20766;-74
2023/05/20 08:32:05;;;;;;;8.02;2.05;;;17.70;61.10;;;;;;5019390;28;20053;-73
2023/05/20 08:34:32;;;;;;;8.60;2.17;;;17.90;61.10;;;;;;5000724;28;20148;-74
2023/05/20 08:36:59;;;;;;;4.60;2.13;;;18.10;59.20;;;;;;4996729;28;20081;-73
2023/05/20 08:39:26;;;;;;;16.67;1.92;;;18.40;59.50;;;;;;5025620;28;20497;-73
2023/05/20 08:41:53;;;;;;;7.88;2.20;;;18.50;57.40;;;;;;5002607;28;20060;-74
2023/05/20 08:44:21;;;;;;;4.22;2.03;;;18.10;58.70;;;;;;5026057;28;20057;-73
2023/05/20 08:46:49;;;;;;;3.03;1.90;;;17.90;59.50;;;;;;5026021;28;20522;-74
2023/05/20 08:49:16;;;;;;;6.47;2.35;;;17.90;59.00;;;;;;5012664;28;20054;-74
2023/05/20 08:51:45;;;;;;;2.40;1.90;;;18.00;59.70;;;;;;4992518;28;20057;-73
2023/05/20 08:54:13;;;;;;;4.00;1.85;;;18.00;57.70;;;;;;5024388;28;20099;-73
2023/05/20 08:56:41;;;;;;;4.65;2.10;;;17.80;57.80;;;;;;5005669;28;20068;-73
2023/05/20 08:59:08;;;;;;;5.53;2.17;;;17.20;59.40;;;;;;5001544;28;20162;-74
2023/05/20 09:01:44;;;;;;;8.35;2.28;;;16.90;60.40;;;;;;5000230;28;20118;-74
2023/05/20 09:04:11;;;;;;;6.85;2.00;;;16.80;61.30;;;;;;5002723;28;20053;-73
2023/05/20 09:06:45;;;;;;;7.80;2.10;;;16.70;61.40;;;;;;5004497;28;20458;-73
2023/05/20 09:09:13;;;;;;;12.48;2.13;;;16.80;61.50;;;;;;5015635;28;20049;-73
2023/05/20 09:11:41;;;;;;;12.43;2.88;;;16.70;61.20;;;;;;5022358;28;20057;-73
2023/05/20 09:14:08;;;;;;;4.07;2.08;;;16.40;62.50;;;;;;5012964;28;20053;-73
2023/05/20 09:16:35;;;;;;;7.25;2.50;;;16.50;62.10;;;;;;5012640;28;20140;-73
2023/05/20 09:19:05;;;;;;;3.78;2.05;;;16.60;62.10;;;;;;4996530;28;20056;-72
2023/05/20 09:21:32;;;;;;;4.30;2.35;;;16.50;62.80;;;;;;5014000;28;20052;-72
2023/05/20 09:24:01;;;;;;;8.15;1.70;;;16.40;61.80;;;;;;5012433;28;20053;-72
2023/05/20 09:26:28;;;;;;;4.70;2.10;;;16.20;63.00;;;;;;5011714;28;20061;-73
2023/05/20 09:28:56;;;;;;;5.25;1.92;;;16.10;63.40;;;;;;5015004;28;20049;-73
2023/05/20 09:31:34;;;;;;;6.82;2.17;;;16.00;63.80;;;;;;5016351;28;20056;-72
2023/05/20 09:34:01;;;;;;;4.60;2.40;;;15.90;64.40;;;;;;5014175;28;20085;-72
2023/05/20 09:36:30;;;;;;;11.07;2.67;;;15.90;64.00;;;;;;5013068;28;20057;-72
2023/05/20 09:39:02;;;;;;;20.00;2.63;;;15.70;64.90;;;;;;4992548;28;20072;-72
2023/05/20 09:41:37;;;;;;;9.55;2.50;;;15.70;65.50;;;;;;4998368;28;20643;-73
2023/05/20 09:44:07;;;;;;;10.00;2.50;;;15.70;65.80;;;;;;5006292;28;20118;-72
2023/05/20 09:46:35;;;;;;;4.65;1.80;;;15.80;66.20;;;;;;5014088;28;20077;-73
2023/05/20 09:49:02;;;;;;;6.32;1.90;;;15.80;66.20;;;;;;5012364;28;20111;-72
2023/05/20 09:51:31;;;;;;;10.65;2.30;;;16.00;65.40;;;;;;5014647;28;20054;-72
2023/05/20 09:53:59;;;;;;;3.13;1.90;;;16.20;65.20;;;;;;5011346;28;20152;-73
2023/05/20 09:56:27;;;;;;;5.18;2.33;;;16.10;64.30;;;;;;5011991;28;20279;-73
2023/05/20 09:58:57;;;;;;;5.35;2.20;;;16.20;64.70;;;;;;4991900;28;20175;-73
2023/05/20 10:01:24;;;;;;;8.85;2.40;;;16.30;63.90;;;;;;5012269;28;20053;-73
2023/05/20 10:03:52;;;;;;;119.65;12.35;;;16.30;63.80;;;;;;5003390;28;20057;-73
2023/05/20 10:06:22;;;;;;;20.42;3.67;;;16.30;64.50;;;;;;4999840;28;20061;-73
2023/05/20 10:09:16;;;;;;;6.80;2.30;;;16.40;64.60;;;;;;4983618;28;20512;-73
2023/05/20 10:12:02;;;;;;;69.70;8.63;;;16.40;64.60;;;;;;4997813;28;20063;-73
2023/05/20 10:14:53;;;;;;;5.43;1.92;;;16.50;65.30;;;;;;4982928;28;20049;-73
2023/05/20 10:18:02;;;;;;;17.77;3.47;;;16.60;64.40;;;;;;4960055;28;20957;-73
2023/05/20 10:20:30;;;;;;;8.10;2.42;;;16.60;64.10;;;;;;4982621;28;20558;-73
2023/05/20 10:22:57;;;;;;;44.97;5.63;;;16.40;64.70;;;;;;4984143;28;21949;-74
2023/05/20 10:25:26;;;;;;;4.70;2.55;;;16.50;65.90;;;;;;4967026;28;20784;-73
2023/05/20 10:28:06;;;;;;;3.38;1.90;;;16.70;65.40;;;;;;4982210;28;20076;-73
2023/05/20 10:30:34;;;;;;;7.45;2.70;;;16.80;64.60;;;;;;5001070;28;20076;-74
2023/05/20 10:33:05;;;;;;;11.82;2.80;;;16.70;63.90;;;;;;4987637;28;20521;-73
2023/05/20 10:35:33;;;;;;;3.78;2.15;;;16.70;63.80;;;;;;5010099;28;20497;-74
2023/05/20 10:38:11;;;;;;;15.52;3.92;;;16.60;65.30;;;;;;4994903;28;20743;-74
2023/05/20 10:40:38;;;;;;;17.02;3.38;;;16.70;64.30;;;;;;5012183;28;20049;-74
2023/05/20 10:43:17;;;;;;;9.40;2.40;;;16.60;64.70;;;;;;4999985;28;20041;-73
2023/05/20 10:45:52;;;;;;;10.35;2.63;;;16.70;65.30;;;;;;5026840;28;20049;-74
2023/05/20 10:48:22;;;;;;;6.60;2.40;;;16.70;64.40;;;;;;5001806;28;20140;-73
2023/05/20 10:50:49;;;;;;;11.95;2.60;;;16.90;64.30;;;;;;5001384;28;20169;-74
2023/05/20 10:53:16;;;;;;;4.45;2.30;;;17.10;64.60;;;;;;5015243;28;20088;-73
2023/05/20 10:55:59;;;;;;;4.18;2.30;;;17.10;63.00;;;;;;5018153;28;20501;-73
2023/05/20 10:58:26;;;;;;;6.25;2.35;;;17.10;62.60;;;;;;5036758;28;20576;-73
2023/05/20 11:00:54;;;;;;;6.47;2.55;;;16.80;62.90;;;;;;5033257;28;20041;-75
2023/05/20 11:03:23;;;;;;;9.52;2.65;;;16.70;64.00;;;;;;5017426;28;20144;-74
2023/05/20 11:05:50;;;;;;;7.88;2.63;;;16.60;63.80;;;;;;5014727;28;20511;-75
2023/05/20 11:08:17;;;;;;;7.78;2.55;;;16.50;64.60;;;;;;5032077;28;20540;-76
2023/05/20 11:10:58;;;;;;;4.78;2.50;;;16.40;64.30;;;;;;5032835;28;20146;-76
2023/05/20 11:13:26;;;;;;;4.68;2.33;;;16.50;64.20;;;;;;5013036;28;20404;-75
2023/05/20 11:15:53;;;;;;;4.40;2.33;;;16.60;64.60;;;;;;5001273;28;20329;-76
2023/05/20 11:18:20;;;;;;;5.80;2.90;;;16.70;64.30;;;;;;5027506;28;20049;-73
2023/05/20 11:20:47;;;;;;;4.90;2.42;;;16.70;64.00;;;;;;5025016;28;20045;-73
2023/05/20 11:23:15;;;;;;;3.97;2.70;;;16.80;63.40;;;;;;5003244;28;20051;-74
2023/05/20 11:25:42;;;;;;;5.82;2.45;;;16.70;62.60;;;;;;5005088;28;20050;-73
2023/05/20 11:28:12;;;;;;;5.18;1.88;;;16.60;63.90;;;;;;5017728;28;20081;-74
2023/05/20 11:30:42;;;;;;;5.15;2.10;;;16.60;64.10;;;;;;5009156;28;20449;-73
2023/05/20 11:33:12;;;;;;;4.18;2.25;;;16.60;63.80;;;;;;4998394;28;20849;-73
2023/05/20 11:35:50;;;;;;;7.53;2.15;;;16.70;63.90;;;;;;4996974;28;20057;-73
2023/05/20 11:38:18;;;;;;;8.32;2.10;;;16.60;62.70;;;;;;5013471;28;20129;-73
2023/05/20 11:40:53;;;;;;;11.25;2.30;;;16.50;63.90;;;;;;4996330;28;20071;-73
2023/05/20 11:43:22;;;;;;;9.07;2.20;;;16.50;63.90;;;;;;5015078;28;20133;-73
2023/05/20 11:45:59;;;;;;;5.00;2.30;;;16.40;63.60;;;;;;5015423;28;20676;-73
2023/05/20 11:48:27;;;;;;;4.70;2.17;;;16.40;64.80;;;;;;5010082;28;20407;-73
2023/05/20 11:50:55;;;;;;;7.97;3.40;;;16.50;65.20;;;;;;5008363;28;20056;-74
2023/05/20 11:53:23;;;;;;;4.95;2.10;;;16.60;65.00;;;;;;4995662;28;20132;-73
2023/05/20 11:55:57;;;;;;;15.23;3.35;;;16.60;64.30;;;;;;5009908;28;20453;-73
2023/05/20 11:58:27;;;;;;;6.65;2.13;;;16.60;64.60;;;;;;5015379;28;20053;-73
2023/05/20 12:00:54;;;;;;;19.92;3.03;;;16.50;64.40;;;;;;5014439;28;20128;-73
2023/05/20 12:03:39;;;;;;;10.37;2.47;;;16.40;64.50;;;;;;5018448;28;20693;-73
2023/05/20 12:06:06;;;;;;;16.05;2.40;;;16.30;65.20;;;;;;4993666;28;20124;-74
2023/05/20 12:08:33;;;;;;;2.85;1.80;;;16.30;65.40;;;;;;5014878;28;20046;-74
2023/05/20 12:11:00;;;;;;;4.28;2.28;;;16.30;65.50;;;;;;4995997;28;20781;-74
2023/05/20 12:13:27;;;;;;;3.50;1.98;;;16.20;65.40;;;;;;5014915;28;20654;-73
2023/05/20 12:15:54;;;;;;;7.40;1.85;;;16.20;66.30;;;;;;5014196;28;20079;-74
2023/05/20 12:18:21;;;;;;;12.73;2.30;;;16.20;66.20;;;;;;4996896;28;20049;-73
2023/05/20 12:20:48;;;;;;;6.63;2.17;;;16.20;66.40;;;;;;5017494;28;20655;-73
2023/05/20 12:23:15;;;;;;;7.05;2.20;;;16.20;66.00;;;;;;5032717;28;20072;-74
2023/05/20 12:25:45;;;;;;;5.88;2.40;;;16.10;65.70;;;;;;5030325;28;20405;-73
2023/05/20 12:28:13;;;;;;;7.93;2.70;;;16.00;66.20;;;;;;5013127;28;20509;-73
2023/05/20 12:30:40;;;;;;;12.73;3.38;;;15.90;67.00;;;;;;5016024;28;20757;-73
2023/05/20 12:33:08;;;;;;;11.40;2.88;;;15.90;67.40;;;;;;5015058;28;20505;-74
2023/05/20 12:35:36;;;;;;;6.13;2.67;;;15.80;67.50;;;;;;5014285;28;20509;-74
2023/05/20 12:38:04;;;;;;;4.28;2.72;;;15.80;67.90;;;;;;5012109;28;20061;-75
2023/05/20 12:40:31;;;;;;;12.90;3.40;;;15.90;67.70;;;;;;5032609;28;20081;-74
2023/05/20 12:43:00;;;;;;;15.88;3.10;;;15.80;69.40;;;;;;5031012;28;20091;-75
2023/05/20 12:45:27;;;;;;;8.57;2.92;;;15.90;69.20;;;;;;5012529;28;20045;-74
2023/05/20 12:47:55;;;;;;;6.95;3.05;;;16.00;69.30;;;;;;5016182;28;20173;-73
2023/05/20 12:50:24;;;;;;;5.53;2.70;;;16.00;69.20;;;;;;5029670;28;20727;-74
2023/05/20 12:52:51;;;;;;;8.55;3.47;;;16.20;69.70;;;;;;4998516;28;20060;-76
2023/05/20 12:55:18;;;;;;;8.20;3.15;;;16.30;68.50;;;;;;5015026;28;20124;-75
2023/05/20 12:57:46;;;;;;;11.05;2.67;;;16.30;68.10;;;;;;5016650;28;20302;-76